createdAt,value
2022-07-26T00:01:44.628Z,64.07
2022-07-26T00:04:12.576Z,63.50
2022-07-26T00:06:40.540Z,64.36
2022-07-26T00:09:08.611Z,64.89
2022-07-26T00:11:37.987Z,64.46
2022-07-26T00:14:07.656Z,64.67
2022-07-26T00:16:36.699Z,64.76
2022-07-26T00:19:05.177Z,65.07
2022-07-26T00:21:33.180Z,65.78
2022-07-26T00:24:00.848Z,66.30
2022-07-26T00:26:28.578Z,66.91
2022-07-26T00:28:57.600Z,67.34
2022-07-26T00:31:25.340Z,68.28
2022-07-26T00:33:53.115Z,68.68
2022-07-26T00:36:20.921Z,68.72
2022-07-26T00:38:48.598Z,68.78
2022-07-26T00:41:16.300Z,68.71
2022-07-26T00:43:55.710Z,68.74
2022-07-26T00:46:24.805Z,68.91
2022-07-26T00:48:52.746Z,67.95
2022-07-26T00:51:23.143Z,65.81
2022-07-26T00:53:51.219Z,66.92
2022-07-26T00:56:19.612Z,66.61
2022-07-26T00:58:47.263Z,66.55
2022-07-26T01:01:15.222Z,66.17
2022-07-26T01:03:44.415Z,65.88
2022-07-26T01:06:12.412Z,65.99
2022-07-26T01:08:40.180Z,65.71
2022-07-26T01:11:08.018Z,65.58
2022-07-26T01:13:35.853Z,66.56
2022-07-26T01:16:04.308Z,65.88
2022-07-26T01:18:32.056Z,66.70
2022-07-26T01:21:09.069Z,66.24
2022-07-26T01:23:43.635Z,66.33
2022-07-26T01:26:12.170Z,66.31
2022-07-26T01:28:42.254Z,65.61
2022-07-26T01:31:10.226Z,65.50
2022-07-26T01:33:38.082Z,65.58
2022-07-26T01:36:06.343Z,65.47
2022-07-26T01:38:34.133Z,65.37
2022-07-26T01:41:03.164Z,66.21
2022-07-26T01:43:30.916Z,65.77
2022-07-26T01:45:58.963Z,65.90
2022-07-26T01:48:26.808Z,65.76
2022-07-26T01:50:54.606Z,65.94
2022-07-26T01:53:22.336Z,65.79
2022-07-26T01:55:50.158Z,65.94
2022-07-26T01:58:19.209Z,65.06
2022-07-26T02:00:47.062Z,64.97
2022-07-26T02:03:14.850Z,64.73
2022-07-26T02:05:42.893Z,64.54
2022-07-26T02:08:11.807Z,64.69
2022-07-26T02:10:58.306Z,65.38
2022-07-26T02:13:28.195Z,63.90
2022-07-26T02:15:58.739Z,64.83
2022-07-26T02:18:27.570Z,63.54
2022-07-26T02:20:55.720Z,64.22
2022-07-26T02:23:24.177Z,64.72
2022-07-26T02:25:52.019Z,64.45
2022-07-26T02:28:20.100Z,63.79
2022-07-26T02:30:49.980Z,64.51
2022-07-26T02:33:19.221Z,65.67
2022-07-26T02:35:47.934Z,65.95
2022-07-26T02:38:16.992Z,66.38
2022-07-26T02:40:44.924Z,66.59
2022-07-26T02:43:13.142Z,65.82
2022-07-26T02:45:40.800Z,66.17
2022-07-26T02:48:09.893Z,65.28
2022-07-26T02:50:37.632Z,65.37
2022-07-26T02:53:05.364Z,65.49
2022-07-26T02:55:33.120Z,64.49
2022-07-26T02:58:00.864Z,64.30
2022-07-26T03:00:29.142Z,64.65
2022-07-26T03:02:57.597Z,64.69
2022-07-26T03:05:26.891Z,63.16
2022-07-26T03:07:54.823Z,64.62
2022-07-26T03:10:22.610Z,62.52
2022-07-26T03:12:50.508Z,64.27
2022-07-26T03:15:18.753Z,64.48
2022-07-26T03:17:46.636Z,64.33
2022-07-26T03:20:15.079Z,64.37
2022-07-26T03:22:44.355Z,64.44
2022-07-26T03:25:12.370Z,64.54
2022-07-26T03:27:40.215Z,63.55
2022-07-26T03:30:09.514Z,63.76
2022-07-26T03:32:37.456Z,63.95
2022-07-26T03:35:08.218Z,64.02
2022-07-26T03:37:45.143Z,64.25
2022-07-26T03:40:16.578Z,63.99
2022-07-26T03:42:44.754Z,64.91
2022-07-26T03:45:14.005Z,63.99
2022-07-26T03:47:42.376Z,64.39
2022-07-26T03:50:13.624Z,64.25
2022-07-26T03:52:42.084Z,64.69
2022-07-26T03:55:24.616Z,65.47
2022-07-26T03:57:53.763Z,65.51
2022-07-26T04:00:21.581Z,65.16
2022-07-26T04:02:49.278Z,65.15
2022-07-26T04:05:16.977Z,65.80
2022-07-26T04:07:53.315Z,65.78
2022-07-26T04:10:22.436Z,67.19
2022-07-26T04:12:50.716Z,66.47
2022-07-26T04:15:21.254Z,67.38
2022-07-26T04:17:49.375Z,66.13
2022-07-26T04:20:18.072Z,66.44
2022-07-26T04:22:46.020Z,66.45
2022-07-26T04:25:13.982Z,66.89
2022-07-26T04:27:41.645Z,66.78
2022-07-26T04:30:15.140Z,67.45
2022-07-26T04:32:46.366Z,66.19
2022-07-26T04:35:15.114Z,67.00
2022-07-26T04:37:47.527Z,67.53
2022-07-26T04:40:21.441Z,67.32
2022-07-26T04:42:51.858Z,67.79
2022-07-26T04:45:19.641Z,67.39
2022-07-26T04:47:50.660Z,68.01
2022-07-26T04:50:18.964Z,68.67
2022-07-26T04:52:46.813Z,68.89
2022-07-26T04:55:15.276Z,67.85
2022-07-26T04:57:43.088Z,68.46
2022-07-26T05:00:22.261Z,68.37
2022-07-26T05:02:55.117Z,68.59
2022-07-26T05:05:23.771Z,68.86
2022-07-26T05:07:54.148Z,69.21
2022-07-26T05:10:23.072Z,68.38
2022-07-26T05:12:50.876Z,67.20
2022-07-26T05:15:18.562Z,66.88
2022-07-26T05:17:46.667Z,67.64
2022-07-26T05:20:17.931Z,67.22
2022-07-26T05:22:45.599Z,67.19
2022-07-26T05:25:13.360Z,66.47
2022-07-26T05:27:41.768Z,66.47
2022-07-26T05:30:10.907Z,67.35
2022-07-26T05:32:38.854Z,65.91
2022-07-26T05:35:07.970Z,66.40
2022-07-26T05:37:37.420Z,65.58
2022-07-26T05:40:06.630Z,65.79
2022-07-26T05:42:34.363Z,65.78
2022-07-26T05:45:02.153Z,65.60
2022-07-26T05:47:30.410Z,65.53
2022-07-26T05:49:58.167Z,64.82
2022-07-26T05:52:25.923Z,64.96
2022-07-26T05:54:54.967Z,65.47
2022-07-26T05:57:22.711Z,65.67
2022-07-26T05:59:50.493Z,66.33
2022-07-26T06:02:18.315Z,66.18
2022-07-26T06:04:47.378Z,67.36
2022-07-26T06:07:15.597Z,67.58
2022-07-26T06:09:43.538Z,67.72
2022-07-26T06:12:12.681Z,67.89
2022-07-26T06:14:40.497Z,67.93
2022-07-26T06:17:08.216Z,67.39
2022-07-26T06:19:36.227Z,68.70
2022-07-26T06:22:04.568Z,68.71
2022-07-26T06:24:32.491Z,68.95
2022-07-26T06:27:05.054Z,68.37
2022-07-26T06:29:37.638Z,68.43
2022-07-26T06:34:58.558Z,68.88
2022-07-26T06:37:26.364Z,66.83
2022-07-26T06:39:54.053Z,67.83
2022-07-26T06:42:25.916Z,67.40
2022-07-26T06:44:54.947Z,66.72
2022-07-26T06:47:22.658Z,67.34
2022-07-26T06:49:50.444Z,68.33
2022-07-26T06:52:18.314Z,68.72
2022-07-26T06:54:46.247Z,68.78
2022-07-26T06:57:14.185Z,68.35
2022-07-26T06:59:41.898Z,68.91
2022-07-26T07:02:11.043Z,70.12
2022-07-26T07:04:38.887Z,70.21
2022-07-26T07:07:07.587Z,70.14
2022-07-26T07:09:37.520Z,69.73
2022-07-26T07:12:10.282Z,70.41
2022-07-26T07:14:39.138Z,70.65
2022-07-26T07:17:12.933Z,69.82
2022-07-26T07:19:43.125Z,70.11
2022-07-26T07:22:12.251Z,69.36
2022-07-26T07:24:41.078Z,68.65
2022-07-26T07:27:10.474Z,67.69
2022-07-26T07:29:39.004Z,66.98
2022-07-26T07:32:15.931Z,67.31
2022-07-26T07:34:48.513Z,67.62
2022-07-26T07:37:16.739Z,67.89
2022-07-26T07:39:44.643Z,66.80
2022-07-26T07:42:17.732Z,66.71
2022-07-26T07:44:45.577Z,67.29
2022-07-26T07:47:14.209Z,67.65
2022-07-26T07:49:42.019Z,67.20
2022-07-26T07:52:11.055Z,66.99
2022-07-26T07:54:39.271Z,66.74
2022-07-26T07:57:07.014Z,66.77
2022-07-26T07:59:39.104Z,66.31
2022-07-26T08:02:07.831Z,66.70
2022-07-26T08:04:35.762Z,66.00
2022-07-26T08:07:03.695Z,65.41
2022-07-26T08:09:33.877Z,66.50
2022-07-26T08:12:02.107Z,66.10
2022-07-26T08:14:29.985Z,66.14
2022-07-26T08:16:57.881Z,66.21
2022-07-26T08:19:25.998Z,66.36
2022-07-26T08:21:57.011Z,66.01
2022-07-26T08:24:24.955Z,66.70
2022-07-26T08:26:54.476Z,67.52
2022-07-26T08:29:25.259Z,68.55
2022-07-26T08:31:54.201Z,69.39
2022-07-26T08:34:22.613Z,70.05
2022-07-26T08:37:15.499Z,71.32
2022-07-26T08:39:38.136Z,72.07
2022-07-26T08:42:14.226Z,72.89
2022-07-26T08:44:43.513Z,73.20
2022-07-26T08:47:12.445Z,72.65
2022-07-26T08:49:40.538Z,72.78
2022-07-26T08:52:09.830Z,73.07
2022-07-26T08:54:38.264Z,72.18
2022-07-26T08:57:10.717Z,72.08
2022-07-26T08:59:38.605Z,72.57
2022-07-26T09:02:08.974Z,71.82
2022-07-26T09:04:43.831Z,71.84
2022-07-26T09:07:14.124Z,71.53
2022-07-26T09:09:58.075Z,72.27
2022-07-26T09:12:29.726Z,72.19
2022-07-26T09:14:58.200Z,71.79
2022-07-26T09:17:40.669Z,72.26
2022-07-26T09:20:11.269Z,71.44
2022-07-26T09:22:40.304Z,71.45
2022-07-26T09:25:21.957Z,70.47
2022-07-26T09:27:52.079Z,70.32
2022-07-26T09:30:21.059Z,69.22
2022-07-26T09:32:59.125Z,70.07
2022-07-26T09:38:15.940Z,70.99
2022-07-26T09:40:44.144Z,70.77
2022-07-26T09:43:19.791Z,70.03
2022-07-26T09:46:04.220Z,70.16
2022-07-26T09:48:52.163Z,69.80
2022-07-26T09:51:36.082Z,69.55
2022-07-26T09:54:04.281Z,68.87
2022-07-26T09:56:44.179Z,68.72
2022-07-26T09:59:14.032Z,69.23
2022-07-26T10:01:42.269Z,68.26
2022-07-26T10:04:10.489Z,68.84
2022-07-26T10:06:38.499Z,69.12
2022-07-26T10:09:07.153Z,69.17
2022-07-26T10:11:39.770Z,67.35
2022-07-26T10:14:40.879Z,67.31
2022-07-26T10:17:43.084Z,67.55
2022-07-26T10:20:19.355Z,67.65
2022-07-26T10:22:52.383Z,66.86
2022-07-26T10:25:48.747Z,66.36
2022-07-26T10:28:27.888Z,65.18
2022-07-26T10:31:29.470Z,64.83
2022-07-26T10:33:59.455Z,63.97
2022-07-26T10:36:30.419Z,63.07
2022-07-26T10:39:07.687Z,62.23
2022-07-26T10:41:38.354Z,60.27
2022-07-26T10:44:24.959Z,61.11
2022-07-26T10:47:19.486Z,61.23
2022-07-26T10:49:58.385Z,59.08
2022-07-26T10:52:28.415Z,60.76
2022-07-26T10:55:17.946Z,60.36
2022-07-26T10:57:48.212Z,60.45
2022-07-26T11:00:26.274Z,60.58
2022-07-26T11:02:58.768Z,60.12
2022-07-26T11:05:31.124Z,60.54
2022-07-26T11:08:08.507Z,60.96
2022-07-26T11:10:41.311Z,60.19
2022-07-26T11:13:17.466Z,59.95
2022-07-26T11:15:48.032Z,59.87
2022-07-26T11:18:20.004Z,58.12
2022-07-26T11:20:49.982Z,58.82
2022-07-26T11:23:33.496Z,58.95
2022-07-26T11:26:02.822Z,57.69
2022-07-26T11:28:30.849Z,58.03
2022-07-26T11:30:58.912Z,57.66
2022-07-26T11:33:41.623Z,56.37
2022-07-26T11:36:10.071Z,56.04
2022-07-26T11:38:48.674Z,55.91
2022-07-26T11:41:20.036Z,55.64
2022-07-26T11:44:02.518Z,56.24
2022-07-26T12:00:54.714Z,60.06
2022-07-26T12:03:25.843Z,60.04
2022-07-26T12:06:33.061Z,59.94
2022-07-26T12:12:51.891Z,61.04
2022-07-26T12:18:55.550Z,61.78
2022-07-26T12:21:43.864Z,61.80
2022-07-26T12:24:42.910Z,61.39
2022-07-26T12:27:13.264Z,60.95
2022-07-26T12:29:43.077Z,59.92
2022-07-26T12:32:17.538Z,59.59
2022-07-26T12:34:57.477Z,59.56
2022-07-26T12:37:37.608Z,59.69
2022-07-26T12:40:10.804Z,59.49
2022-07-26T12:42:40.570Z,59.49
2022-07-26T12:45:10.573Z,59.60
2022-07-26T12:47:41.869Z,59.34
2022-07-26T12:50:11.959Z,59.53
2022-07-26T12:52:40.807Z,59.77
2022-07-26T12:55:11.484Z,59.00
2022-07-26T12:57:39.205Z,58.42
2022-07-26T13:00:22.545Z,58.80
2022-07-26T13:02:56.179Z,58.66
2022-07-26T13:05:24.535Z,59.12
2022-07-26T13:07:52.622Z,59.41
2022-07-26T13:10:36.370Z,58.75
2022-07-26T13:13:04.375Z,58.46
2022-07-26T13:15:37.180Z,58.73
2022-07-26T13:18:08.779Z,58.42
2022-07-26T13:20:38.140Z,58.15
2022-07-26T13:23:06.054Z,57.74
2022-07-26T13:25:38.296Z,58.15
2022-07-26T13:30:47.388Z,58.72
2022-07-26T13:33:17.665Z,58.73
2022-07-26T13:35:45.736Z,58.94
2022-07-26T13:38:19.744Z,59.50
2022-07-26T13:40:47.856Z,58.98
2022-07-26T13:43:16.119Z,58.61
2022-07-26T13:45:44.334Z,58.59
2022-07-26T13:53:27.252Z,57.71
2022-07-26T13:55:55.015Z,56.95
2022-07-26T13:58:23.261Z,55.90
2022-07-26T14:00:51.461Z,56.03
2022-07-26T14:03:22.748Z,56.35
2022-07-26T14:05:50.990Z,56.07
2022-07-26T14:08:19.159Z,55.44
2022-07-26T14:10:48.524Z,56.36
2022-07-26T14:13:16.743Z,56.50
2022-07-26T14:15:45.254Z,56.36
2022-07-26T14:18:13.239Z,56.84
2022-07-26T14:20:41.467Z,57.23
2022-07-26T14:23:09.530Z,57.90
2022-07-26T14:25:37.904Z,57.72
2022-07-26T14:36:34.296Z,57.48
2022-07-26T14:39:03.253Z,58.31
2022-07-26T14:41:31.624Z,58.51
2022-07-26T14:46:53.747Z,58.03
2022-07-26T14:52:06.586Z,57.51
2022-07-26T14:54:34.401Z,57.45
2022-07-26T14:57:02.086Z,56.50
2022-07-26T14:59:29.799Z,55.85
2022-07-26T15:02:00.392Z,56.25
2022-07-26T15:04:31.621Z,56.70
2022-07-26T15:07:00.696Z,56.60
2022-07-26T15:09:29.796Z,57.01
2022-07-26T15:11:57.481Z,57.24
2022-07-26T15:14:25.472Z,57.20
2022-07-26T15:16:53.276Z,57.64
2022-07-26T15:19:25.355Z,56.72
2022-07-26T15:21:54.927Z,57.08
2022-07-26T15:24:23.194Z,55.79
2022-07-26T15:26:53.723Z,55.77
2022-07-26T15:29:21.972Z,54.83
2022-07-26T15:31:50.468Z,55.10
2022-07-26T15:34:18.421Z,55.10
2022-07-26T15:36:46.156Z,55.39
2022-07-26T15:39:17.323Z,54.98
2022-07-26T15:41:45.835Z,54.71
2022-07-26T15:44:16.812Z,54.91
2022-07-26T15:46:45.756Z,53.94
2022-07-26T15:49:16.882Z,53.72
2022-07-26T15:51:44.722Z,53.74
2022-07-26T15:54:15.130Z,53.70
2022-07-26T15:56:44.067Z,53.55
2022-07-26T15:59:11.849Z,52.47
2022-07-26T16:01:40.955Z,51.68
2022-07-26T16:05:11.813Z,50.06
2022-07-26T16:07:41.483Z,50.08
2022-07-26T16:10:10.754Z,49.73
2022-07-26T16:12:38.686Z,49.63
2022-07-26T16:15:07.914Z,49.06
2022-07-26T16:17:37.225Z,48.75
2022-07-26T16:20:05.851Z,48.69
2022-07-26T16:22:33.631Z,48.48
2022-07-26T16:25:01.380Z,48.11
2022-07-26T16:27:29.131Z,47.96
2022-07-26T16:30:15.557Z,47.25
2022-07-26T16:32:44.725Z,47.70
2022-07-26T16:35:12.982Z,47.56
2022-07-26T16:37:41.521Z,48.34
2022-07-26T16:40:10.371Z,49.31
2022-07-26T16:42:38.313Z,49.73
2022-07-26T16:45:06.651Z,50.38
2022-07-26T16:47:34.339Z,50.25
2022-07-26T16:50:03.413Z,50.69
2022-07-26T16:52:31.082Z,51.62
2022-07-26T16:54:59.028Z,51.24
2022-07-26T16:57:27.605Z,51.72
2022-07-26T16:59:55.287Z,51.78
2022-07-26T17:02:23.642Z,51.99
2022-07-26T17:04:52.171Z,51.17
2022-07-26T17:07:25.817Z,51.43
2022-07-26T17:09:54.517Z,52.16
2022-07-26T17:12:22.288Z,51.84
2022-07-26T17:14:50.044Z,51.98
2022-07-26T17:17:17.750Z,51.85
2022-07-26T17:19:45.505Z,50.90
2022-07-26T17:22:13.217Z,51.20
2022-07-26T17:24:42.286Z,51.61
2022-07-26T17:27:09.977Z,51.70
2022-07-26T17:29:37.709Z,51.49
2022-07-26T17:32:06.054Z,51.09
2022-07-26T17:34:33.788Z,49.88
2022-07-26T17:37:05.775Z,50.65
2022-07-26T17:39:52.352Z,51.31
2022-07-26T17:42:22.220Z,50.79
2022-07-26T17:44:50.436Z,50.35
2022-07-26T17:47:29.101Z,50.41
2022-07-26T17:50:14.095Z,50.71
2022-07-26T17:52:47.095Z,50.80
2022-07-26T17:55:14.774Z,50.55
2022-07-26T17:57:43.842Z,50.71
2022-07-26T18:00:12.870Z,50.36
2022-07-26T18:02:40.601Z,50.44
2022-07-26T18:05:08.859Z,50.59
2022-07-26T18:07:36.582Z,50.44
2022-07-26T18:10:05.537Z,50.03
2022-07-26T18:12:33.347Z,49.85
2022-07-26T18:15:02.408Z,49.54
2022-07-26T18:17:30.200Z,50.26
2022-07-26T18:19:57.858Z,50.48
2022-07-26T18:22:25.613Z,50.93
2022-07-26T18:24:53.311Z,50.22
2022-07-26T18:27:22.239Z,50.39
2022-07-26T18:29:50.435Z,50.40
2022-07-26T18:32:19.664Z,50.26
2022-07-26T18:34:51.965Z,50.01
2022-07-26T18:37:24.498Z,50.68
2022-07-26T18:39:57.360Z,50.11
2022-07-26T18:42:25.943Z,49.81
2022-07-26T18:44:53.925Z,49.57
2022-07-26T18:47:23.034Z,49.64
2022-07-26T18:49:51.441Z,49.53
2022-07-26T18:52:28.746Z,49.27
2022-07-26T18:55:02.016Z,49.53
2022-07-26T18:57:29.766Z,49.49
2022-07-26T18:59:57.813Z,49.83
2022-07-26T19:02:27.558Z,49.38
2022-07-26T19:04:55.309Z,49.69
2022-07-26T19:07:23.124Z,50.61
2022-07-26T19:09:56.413Z,50.42
2022-07-26T19:12:26.342Z,50.32
2022-07-26T19:14:54.030Z,50.94
2022-07-26T19:17:22.163Z,50.66
2022-07-26T19:19:51.322Z,50.82
2022-07-26T19:22:19.196Z,50.73
2022-07-26T19:24:48.653Z,51.04
2022-07-26T19:27:17.628Z,51.15
2022-07-26T19:29:45.465Z,50.82
2022-07-26T19:32:13.204Z,50.79
2022-07-26T19:34:41.225Z,51.30
2022-07-26T19:37:10.280Z,51.91
2022-07-26T19:39:38.011Z,52.23
2022-07-26T19:44:58.300Z,52.45
2022-07-26T19:47:26.705Z,53.14
2022-07-26T19:49:54.456Z,52.38
2022-07-26T19:52:23.862Z,52.96
2022-07-26T19:54:51.694Z,53.28
2022-07-26T19:57:19.823Z,53.64
2022-07-26T19:59:47.766Z,53.86
2022-07-26T20:02:16.016Z,53.98
2022-07-26T20:04:46.195Z,53.89
2022-07-26T20:07:19.772Z,53.64
2022-07-26T20:09:49.594Z,54.17
2022-07-26T20:12:18.347Z,54.70
2022-07-26T20:14:46.320Z,54.00
2022-07-26T20:17:15.366Z,54.41
2022-07-26T20:19:46.007Z,55.03
2022-07-26T20:22:13.769Z,55.08
2022-07-26T20:24:41.438Z,54.08
2022-07-26T20:27:10.575Z,54.41
2022-07-26T20:29:38.957Z,54.60
2022-07-26T20:32:07.346Z,54.93
2022-07-26T20:34:35.087Z,55.21
2022-07-26T20:37:05.340Z,55.31
2022-07-26T20:39:33.916Z,55.53
2022-07-26T20:42:01.768Z,55.18
2022-07-26T20:47:26.728Z,54.57
2022-07-26T20:49:57.274Z,54.94
2022-07-26T20:52:27.488Z,54.94
2022-07-26T20:54:55.159Z,54.63
2022-07-26T20:57:23.550Z,54.98
2022-07-26T20:59:52.787Z,54.64
2022-07-26T21:02:20.498Z,54.51
2022-07-26T21:04:48.217Z,54.65
2022-07-26T21:07:16.188Z,55.21
2022-07-26T21:09:43.947Z,55.32
2022-07-26T21:12:11.775Z,54.63
2022-07-26T21:14:39.494Z,54.57
2022-07-26T21:17:11.932Z,55.36
2022-07-26T21:19:40.113Z,54.86
2022-07-26T21:22:08.569Z,55.13
2022-07-26T21:24:36.939Z,55.09
2022-07-26T21:27:05.814Z,55.55
2022-07-26T21:29:39.267Z,54.98
2022-07-26T21:32:08.721Z,55.15
2022-07-26T21:34:36.545Z,55.04
2022-07-26T21:37:05.389Z,55.49
2022-07-26T21:39:33.705Z,55.17
2022-07-26T21:42:01.425Z,55.78
2022-07-26T21:44:29.116Z,55.59
2022-07-26T21:46:56.933Z,55.84
2022-07-26T21:49:26.094Z,55.75
2022-07-26T21:51:53.779Z,56.34
2022-07-26T21:54:21.516Z,55.49
2022-07-26T21:56:49.267Z,55.40
2022-07-26T21:59:17.062Z,55.84
2022-07-26T22:01:44.790Z,56.06
2022-07-26T22:04:12.462Z,55.93
2022-07-26T22:06:41.517Z,55.62
2022-07-26T22:09:10.338Z,55.92
2022-07-26T22:11:38.207Z,56.09
2022-07-26T22:14:08.245Z,55.93
2022-07-26T22:16:36.444Z,55.77
2022-07-26T22:19:04.305Z,55.11
2022-07-26T22:21:32.001Z,55.09
2022-07-26T22:24:01.369Z,55.41
2022-07-26T22:26:31.161Z,55.69
2022-07-26T22:28:59.114Z,56.45
2022-07-26T22:31:26.935Z,56.93
2022-07-26T22:33:54.729Z,56.79
2022-07-26T22:36:22.454Z,56.80
2022-07-26T22:38:50.124Z,57.14
2022-07-26T22:41:19.232Z,56.87
2022-07-26T22:43:46.934Z,57.77
2022-07-26T22:46:14.796Z,57.36
2022-07-26T22:48:47.814Z,57.20
2022-07-26T22:51:15.825Z,57.96
2022-07-26T22:53:43.478Z,57.83
2022-07-26T22:56:11.178Z,58.24
2022-07-26T22:58:40.743Z,57.56
2022-07-26T23:01:08.501Z,57.29
2022-07-26T23:03:36.230Z,57.90
2022-07-26T23:06:06.037Z,57.39
2022-07-26T23:08:53.654Z,57.77
2022-07-26T23:11:21.370Z,57.31
2022-07-26T23:13:50.473Z,57.50
2022-07-26T23:16:27.097Z,58.22
2022-07-26T23:18:55.545Z,57.01
2022-07-26T23:21:23.293Z,56.50
2022-07-26T23:23:50.976Z,56.45
2022-07-26T23:26:18.738Z,56.37
2022-07-26T23:28:46.827Z,56.45
2022-07-26T23:31:15.985Z,56.21
2022-07-26T23:33:50.755Z,55.60
2022-07-26T23:36:21.698Z,55.68
2022-07-26T23:38:49.377Z,55.64
2022-07-26T23:41:17.078Z,54.75
2022-07-26T23:43:44.818Z,55.66
2022-07-26T23:46:12.674Z,54.95
2022-07-26T23:48:41.846Z,55.31
2022-07-26T23:51:09.602Z,54.37
2022-07-26T23:53:37.377Z,54.05
2022-07-26T23:56:05.417Z,54.50
2022-07-26T23:58:33.213Z,55.28
